| time (UTC) | temp C | wind direction | speed KPH | gust KPH | rain 1hr cm | rain 24hr cm | rain mn cm | humidity % | barometer mb |
| 20260506165036 | 16 | 305 | 3.2 | 14.5 | 0.00 | 0.00 | 0.00 | 77 | 1018.4 |
| 20260506164548 | 16 | 285 | 4.8 | 11.3 | 0.00 | 0.00 | 0.00 | 78 | 1018.4 |
| 20260506164038 | 16 | 308 | 1.6 | 11.3 | 0.00 | 0.00 | 0.00 | 77 | 1018.4 |
| 20260506163540 | 16 | 289 | 4.8 | 11.3 | 0.00 | 0.00 | 0.00 | 78 | 1018.4 |
| 20260506163111 | 16 | 257 | 3.2 | 11.3 | 0.00 | 0.00 | 0.00 | 78 | 1018.4 |
| 20260506162538 | 16 | 281 | 4.8 | 11.3 | 0.00 | 0.00 | 0.00 | 79 | 1018.4 |
| 20260506162039 | 16 | 0 | 0.0 | 0.0 | 0.00 | 0.00 | 0.00 | 78 | 1018.4 |
| 20260506161545 | 16 | 0 | 0.0 | 1.6 | 0.00 | 0.00 | 0.00 | 79 | 1018.4 |
| 20260506161037 | 16 | 0 | 0.0 | 1.6 | 0.00 | 0.00 | 0.00 | 79 | 1018.3 |
| 20260506160535 | 15 | 0 | 0.0 | 1.6 | 0.00 | 0.00 | 0.00 | 80 | 1018.4 |
| 20260506160045 | 15 | 0 | 0.0 | 0.0 | 0.00 | 0.00 | 0.00 | 80 | 1018.3 |
| 20260506155535 | 15 | 0 | 0.0 | 0.0 | 0.00 | 0.00 | 0.00 | 81 | 1018.3 |
| 20260506155036 | 15 | 0 | 0.0 | 0.0 | 0.00 | 0.00 | 0.00 | 81 | 1018.3 |
| 20260506154607 | 15 | 0 | 0.0 | 0.0 | 0.00 | 0.00 | 0.00 | 81 | 1018.3 |
| 20260506154036 | 15 | 0 | 0.0 | 0.0 | 0.00 | 0.00 | 0.00 | 82 | 1018.3 |
| 20260506153536 | 15 | 0 | 0.0 | 0.0 | 0.00 | 0.00 | 0.00 | 82 | 1018.3 |
| 20260506153054 | 14 | 0 | 0.0 | 0.0 | 0.00 | 0.00 | 0.00 | 82 | 1018.3 |
| 20260506152535 | 14 | 0 | 0.0 | 0.0 | 0.00 | 0.00 | 0.00 | 82 | 1018.2 |
| 20260506152035 | 14 | 0 | 0.0 | 0.0 | 0.00 | 0.00 | 0.00 | 82 | 1018.2 |
| 20260506151552 | 14 | 0 | 0.0 | 0.0 | 0.00 | 0.00 | 0.00 | 83 | 1018.3 |
| 20260506151035 | 13 | 0 | 0.0 | 0.0 | 0.00 | 0.00 | 0.00 | 83 | 1018.3 |
| 20260506150536 | 13 | 0 | 0.0 | 0.0 | 0.00 | 0.00 | 0.00 | 84 | 1018.3 |
| 20260506150045 | 13 | 0 | 0.0 | 0.0 | 0.00 | 0.00 | 0.00 | 84 | 1018.3 |
| 20260506145536 | 13 | 0 | 0.0 | 0.0 | 0.00 | 0.00 | 0.00 | 84 | 1018.4 |
| 20260506145035 | 13 | 0 | 0.0 | 0.0 | 0.00 | 0.00 | 0.00 | 84 | 1018.3 |
| 20260506144546 | 13 | 0 | 0.0 | 0.0 | 0.00 | 0.00 | 0.00 | 85 | 1018.3 |
| 20260506144035 | 13 | 0 | 0.0 | 0.0 | 0.00 | 0.00 | 0.00 | 85 | 1018.3 |
| 20260506143539 | 13 | 0 | 0.0 | 0.0 | 0.00 | 0.00 | 0.00 | 85 | 1018.3 |
| 20260506143104 | 12 | 0 | 0.0 | 0.0 | 0.00 | 0.00 | 0.00 | 85 | 1018.2 |
| 20260506142540 | 12 | 0 | 0.0 | 0.0 | 0.00 | 0.00 | 0.00 | 85 | 1018.2 |
| 20260506142035 | 12 | 0 | 0.0 | 0.0 | 0.00 | 0.00 | 0.00 | 86 | 1018.1 |
| 20260506141550 | 12 | 0 | 0.0 | 0.0 | 0.00 | 0.00 | 0.00 | 86 | 1018.1 |
| 20260506141035 | 12 | 0 | 0.0 | 0.0 | 0.00 | 0.00 | 0.00 | 86 | 1018.1 |
| 20260506140539 | 12 | 0 | 0.0 | 0.0 | 0.00 | 0.00 | 0.00 | 86 | 1018.1 |
| 20260506140047 | 12 | 0 | 0.0 | 0.0 | 0.00 | 0.00 | 0.00 | 86 | 1018.1 |
| 20260506135534 | 12 | 0 | 0.0 | 0.0 | 0.00 | 0.10 | 0.00 | 86 | 1018.0 |
| 20260506135035 | 12 | 0 | 0.0 | 0.0 | 0.00 | 0.10 | 0.00 | 86 | 1018.0 |
| 20260506134548 | 12 | 0 | 0.0 | 0.0 | 0.00 | 0.10 | 0.00 | 86 | 1017.9 |
| 20260506134035 | 12 | 0 | 0.0 | 0.0 | 0.00 | 0.10 | 0.00 | 86 | 1017.9 |
| 20260506133534 | 12 | 0 | 0.0 | 0.0 | 0.00 | 0.10 | 0.00 | 86 | 1017.8 |
| 20260506133043 | 12 | 0 | 0.0 | 0.0 | 0.00 | 0.10 | 0.00 | 86 | 1017.9 |
| 20260506132535 | 12 | 0 | 0.0 | 0.0 | 0.00 | 0.10 | 0.00 | 85 | 1017.8 |
| 20260506132035 | 12 | 0 | 0.0 | 0.0 | 0.00 | 0.10 | 0.00 | 85 | 1017.7 |
| 20260506131548 | 12 | 0 | 0.0 | 0.0 | 0.00 | 0.10 | 0.00 | 85 | 1017.6 |
| 20260506131032 | 12 | 0 | 0.0 | 0.0 | 0.00 | 0.10 | 0.00 | 85 | 1017.5 |
| 20260506130536 | 12 | 0 | 0.0 | 0.0 | 0.00 | 0.10 | 0.00 | 85 | 1017.4 |
| 20260506130052 | 12 | 0 | 0.0 | 0.0 | 0.00 | 0.10 | 0.00 | 85 | 1017.3 |
| 20260506125539 | 12 | 0 | 0.0 | 0.0 | 0.00 | 0.13 | 0.00 | 85 | 1017.3 |
| 20260506125037 | 12 | 0 | 0.0 | 0.0 | 0.00 | 0.13 | 0.00 | 85 | 1017.2 |
| 20260506124546 | 12 | 0 | 0.0 | 0.0 | 0.00 | 0.13 | 0.00 | 85 | 1017.2 |
| 20260506124035 | 12 | 0 | 0.0 | 0.0 | 0.00 | 0.13 | 0.00 | 85 | 1017.1 |
| 20260506123535 | 12 | 0 | 0.0 | 0.0 | 0.00 | 0.13 | 0.00 | 85 | 1017.1 |
| 20260506123048 | 12 | 0 | 0.0 | 0.0 | 0.00 | 0.13 | 0.00 | 85 | 1017.1 |
| 20260506122534 | 12 | 0 | 0.0 | 0.0 | 0.00 | 0.13 | 0.00 | 85 | 1017.0 |
| 20260506122034 | 12 | 0 | 0.0 | 0.0 | 0.00 | 0.13 | 0.00 | 84 | 1017.1 |
| 20260506121546 | 12 | 0 | 0.0 | 0.0 | 0.00 | 0.13 | 0.00 | 84 | 1017.0 |
| 20260506121035 | 12 | 0 | 0.0 | 0.0 | 0.00 | 0.13 | 0.00 | 85 | 1017.0 |
| 20260506120535 | 12 | 0 | 0.0 | 0.0 | 0.00 | 0.13 | 0.00 | 84 | 1017.0 |
| 20260506120058 | 12 | 0 | 0.0 | 0.0 | 0.00 | 0.13 | 0.00 | 84 | 1017.0 |
| 20260506115535 | 12 | 0 | 0.0 | 0.0 | 0.00 | 0.25 | 0.00 | 84 | 1017.0 |
| 20260506115035 | 12 | 0 | 0.0 | 0.0 | 0.00 | 0.25 | 0.00 | 84 | 1017.0 |
| 20260506114557 | 12 | 0 | 0.0 | 0.0 | 0.00 | 0.25 | 0.00 | 84 | 1017.0 |
| 20260506114032 | 12 | 0 | 0.0 | 0.0 | 0.00 | 0.25 | 0.00 | 84 | 1017.0 |
| 20260506113537 | 12 | 0 | 0.0 | 0.0 | 0.00 | 0.25 | 0.00 | 84 | 1017.0 |
| 20260506113047 | 12 | 0 | 0.0 | 0.0 | 0.00 | 0.25 | 0.00 | 84 | 1017.0 |
| 20260506112534 | 12 | 0 | 0.0 | 0.0 | 0.00 | 0.25 | 0.00 | 84 | 1017.0 |
| 20260506112037 | 12 | 0 | 0.0 | 0.0 | 0.00 | 0.25 | 0.00 | 84 | 1017.0 |
| 20260506111549 | 12 | 0 | 0.0 | 0.0 | 0.00 | 0.25 | 0.00 | 84 | 1017.0 |
| 20260506111035 | 12 | 0 | 0.0 | 0.0 | 0.00 | 0.25 | 0.00 | 84 | 1017.0 |
| 20260506110535 | 12 | 0 | 0.0 | 0.0 | 0.00 | 0.25 | 0.00 | 83 | 1017.0 |
| 20260506110054 | 12 | 0 | 0.0 | 0.0 | 0.00 | 0.25 | 0.00 | 83 | 1017.0 |
| 20260506105535 | 12 | 0 | 0.0 | 0.0 | 0.00 | 0.51 | 0.00 | 83 | 1016.9 |
| 20260506105034 | 12 | 0 | 0.0 | 0.0 | 0.00 | 0.51 | 0.00 | 83 | 1017.0 |
| 20260506104546 | 12 | 0 | 0.0 | 0.0 | 0.00 | 0.51 | 0.00 | 83 | 1017.0 |
| 20260506104032 | 12 | 0 | 0.0 | 0.0 | 0.00 | 0.51 | 0.00 | 83 | 1017.0 |
| 20260506103536 | 13 | 0 | 0.0 | 0.0 | 0.00 | 0.51 | 0.00 | 83 | 1017.0 |
| 20260506103048 | 13 | 0 | 0.0 | 0.0 | 0.00 | 0.51 | 0.00 | 83 | 1016.9 |
| 20260506102536 | 13 | 0 | 0.0 | 0.0 | 0.00 | 0.51 | 0.00 | 83 | 1017.0 |
| 20260506102036 | 13 | 0 | 0.0 | 0.0 | 0.00 | 0.51 | 0.00 | 83 | 1017.0 |
| 20260506101556 | 13 | 0 | 0.0 | 0.0 | 0.00 | 0.51 | 0.00 | 82 | 1017.0 |
| 20260506101038 | 13 | 0 | 0.0 | 0.0 | 0.00 | 0.51 | 0.00 | 82 | 1016.9 |
| 20260506100535 | 13 | 0 | 0.0 | 0.0 | 0.00 | 0.51 | 0.00 | 82 | 1016.8 |
| 20260506100048 | 13 | 0 | 0.0 | 0.0 | 0.00 | 0.51 | 0.00 | 82 | 1016.9 |
| 20260506095536 | 13 | 0 | 0.0 | 0.0 | 0.00 | 0.51 | 0.00 | 82 | 1016.9 |
| 20260506095037 | 13 | 0 | 0.0 | 0.0 | 0.00 | 0.51 | 0.00 | 82 | 1016.9 |
| 20260506094606 | 13 | 0 | 0.0 | 0.0 | 0.00 | 0.51 | 0.00 | 82 | 1016.8 |
| 20260506094032 | 13 | 0 | 0.0 | 0.0 | 0.00 | 0.51 | 0.00 | 81 | 1016.9 |
| 20260506093537 | 13 | 0 | 0.0 | 0.0 | 0.00 | 0.51 | 0.00 | 81 | 1016.8 |
| 20260506093049 | 13 | 0 | 0.0 | 0.0 | 0.00 | 0.51 | 0.00 | 81 | 1016.9 |
| 20260506092535 | 13 | 0 | 0.0 | 0.0 | 0.00 | 0.51 | 0.00 | 81 | 1017.0 |
| 20260506092035 | 13 | 0 | 0.0 | 0.0 | 0.00 | 0.51 | 0.00 | 81 | 1017.0 |
| 20260506091542 | 13 | 0 | 0.0 | 0.0 | 0.00 | 0.51 | 0.00 | 81 | 1017.0 |
| 20260506091035 | 13 | 0 | 0.0 | 0.0 | 0.00 | 0.51 | 0.00 | 81 | 1017.0 |
| 20260506090534 | 13 | 0 | 0.0 | 0.0 | 0.00 | 0.51 | 0.00 | 81 | 1017.1 |
| 20260506090049 | 13 | 0 | 0.0 | 0.0 | 0.00 | 0.51 | 0.00 | 81 | 1017.2 |
| 20260506085534 | 13 | 0 | 0.0 | 0.0 | 0.00 | 0.51 | 0.00 | 81 | 1017.2 |
| 20260506085037 | 13 | 0 | 0.0 | 0.0 | 0.00 | 0.51 | 0.00 | 81 | 1017.3 |
| 20260506084548 | 13 | 0 | 0.0 | 0.0 | 0.00 | 0.51 | 0.00 | 81 | 1017.3 |
| 20260506084035 | 13 | 0 | 0.0 | 0.0 | 0.00 | 0.51 | 0.00 | 80 | 1017.3 |
| 20260506083534 | 13 | 0 | 0.0 | 0.0 | 0.00 | 0.51 | 0.00 | 80 | 1017.4 |
| 20260506083049 | 13 | 0 | 0.0 | 0.0 | 0.00 | 0.51 | 0.00 | 80 | 1017.4 |
| 20260506082533 | 13 | 0 | 0.0 | 0.0 | 0.00 | 0.51 | 0.00 | 80 | 1017.5 |
| 20260506082033 | 14 | 0 | 0.0 | 0.0 | 0.00 | 0.51 | 0.00 | 80 | 1017.5 |
| 20260506081547 | 14 | 0 | 0.0 | 0.0 | 0.00 | 0.51 | 0.00 | 80 | 1017.5 |
| 20260506081034 | 14 | 0 | 0.0 | 0.0 | 0.00 | 0.51 | 0.00 | 80 | 1017.6 |
| 20260506080533 | 14 | 0 | 0.0 | 0.0 | 0.00 | 0.51 | 0.00 | 80 | 1017.6 |
| 20260506073047 | 14 | 0 | 0.0 | 1.6 | 0.00 | 0.51 | 0.00 | 78 | 1017.7 |
| 20260506072532 | 14 | 0 | 0.0 | 1.6 | 0.00 | 0.51 | 0.00 | 79 | 1017.8 |
| 20260506072034 | 14 | 0 | 0.0 | 1.6 | 0.00 | 0.51 | 0.00 | 79 | 1017.8 |
| 20260506071550 | 14 | 0 | 0.0 | 0.0 | 0.00 | 0.51 | 0.00 | 79 | 1017.8 |
| 20260506071032 | 15 | 0 | 0.0 | 0.0 | 0.00 | 0.51 | 0.00 | 79 | 1017.8 |
| 20260506070533 | 15 | 0 | 0.0 | 0.0 | 0.00 | 0.51 | 0.00 | 78 | 1017.8 |
| 20260506062033 | 15 | 0 | 0.0 | 0.0 | 0.00 | 0.51 | 0.51 | 78 | 1017.4 |
| 20260506061544 | 15 | 0 | 0.0 | 0.0 | 0.00 | 0.51 | 0.51 | 79 | 1017.4 |
| 20260506061033 | 15 | 0 | 0.0 | 0.0 | 0.00 | 0.51 | 0.51 | 78 | 1017.5 |
| 20260506060534 | 15 | 0 | 0.0 | 0.0 | 0.00 | 0.51 | 0.51 | 78 | 1017.5 |
| 20260506051032 | 15 | 0 | 0.0 | 0.0 | 0.00 | 0.51 | 0.51 | 77 | 1017.3 |
| 20260506050533 | 15 | 0 | 0.0 | 0.0 | 0.00 | 0.51 | 0.51 | 77 | 1017.3 |
| 20260506045032 | 15 | 0 | 0.0 | 3.2 | 0.00 | 0.51 | 0.51 | 78 | 1017.1 |
| 20260506044551 | 15 | 0 | 0.0 | 3.2 | 0.00 | 0.51 | 0.51 | 78 | 1017.0 |
| 20260506044034 | 15 | 0 | 0.0 | 3.2 | 0.00 | 0.51 | 0.51 | 78 | 1017.0 |
| 20260506043536 | 15 | 0 | 0.0 | 3.2 | 0.00 | 0.51 | 0.51 | 78 | 1016.9 |
| 20260506043049 | 15 | 0 | 0.0 | 4.8 | 0.00 | 0.51 | 0.51 | 78 | 1016.9 |
| 20260506042532 | 15 | 282 | 0.0 | 4.8 | 0.00 | 0.51 | 0.51 | 78 | 1016.9 |
| 20260506042033 | 15 | 306 | 1.6 | 4.8 | 0.00 | 0.51 | 0.51 | 78 | 1016.8 |
| 20260506041541 | 15 | 267 | 0.0 | 4.8 | 0.00 | 0.51 | 0.51 | 78 | 1016.7 |
| 20260506041032 | 15 | 236 | 1.6 | 4.8 | 0.00 | 0.51 | 0.51 | 78 | 1016.7 |
| 20260506040534 | 15 | 283 | 1.6 | 3.2 | 0.00 | 0.51 | 0.51 | 77 | 1016.6 |
| 20260506040058 | 15 | 259 | 0.0 | 4.8 | 0.00 | 0.51 | 0.51 | 77 | 1016.5 |
| 20260506035538 | 15 | 0 | 0.0 | 4.8 | 0.00 | 0.51 | 0.51 | 77 | 1016.5 |
| 20260506035036 | 15 | 300 | 1.6 | 8.0 | 0.00 | 0.51 | 0.51 | 77 | 1016.3 |
| 20260506034558 | 15 | 271 | 1.6 | 8.0 | 0.00 | 0.51 | 0.51 | 77 | 1016.3 |
| 20260506034034 | 15 | 295 | 3.2 | 8.0 | 0.00 | 0.51 | 0.51 | 77 | 1016.2 |
| 20260506033534 | 15 | 269 | 1.6 | 6.4 | 0.00 | 0.51 | 0.51 | 77 | 1016.1 |
| 20260506033047 | 15 | 303 | 1.6 | 6.4 | 0.00 | 0.51 | 0.51 | 76 | 1016.1 |
| 20260506032531 | 15 | 319 | 1.6 | 6.4 | 0.00 | 0.51 | 0.51 | 76 | 1016.0 |
| 20260506032033 | 15 | 309 | 3.2 | 6.4 | 0.00 | 0.51 | 0.51 | 75 | 1016.0 |
| 20260506031555 | 15 | 288 | 1.6 | 6.4 | 0.00 | 0.51 | 0.51 | 75 | 1016.0 |
| 20260506031036 | 15 | 306 | 1.6 | 6.4 | 0.00 | 0.51 | 0.51 | 75 | 1015.9 |
| 20260506030532 | 15 | 308 | 1.6 | 9.7 | 0.00 | 0.51 | 0.51 | 75 | 1015.9 |
| 20260506030045 | 15 | 296 | 1.6 | 9.7 | 0.00 | 0.51 | 0.51 | 75 | 1015.8 |
| 20260506025534 | 15 | 259 | 3.2 | 9.7 | 0.00 | 0.51 | 0.51 | 75 | 1015.8 |
| 20260506025035 | 15 | 294 | 1.6 | 6.4 | 0.00 | 0.51 | 0.51 | 74 | 1015.8 |
| 20260506024546 | 15 | 315 | 1.6 | 6.4 | 0.00 | 0.51 | 0.51 | 74 | 1015.7 |
| 20260506024035 | 15 | 267 | 3.2 | 9.7 | 0.00 | 0.51 | 0.51 | 74 | 1015.6 |
| 20260506023535 | 15 | 279 | 3.2 | 11.3 | 0.00 | 0.51 | 0.51 | 74 | 1015.6 |
| 20260506023048 | 15 | 266 | 3.2 | 11.3 | 0.00 | 0.51 | 0.51 | 73 | 1015.4 |
| 20260506022532 | 15 | 296 | 4.8 | 11.3 | 0.00 | 0.51 | 0.51 | 73 | 1015.4 |
| 20260506022034 | 15 | 306 | 3.2 | 8.0 | 0.00 | 0.51 | 0.51 | 73 | 1015.4 |
| 20260506021550 | 15 | 321 | 3.2 | 14.5 | 0.00 | 0.51 | 0.51 | 73 | 1015.4 |
| 20260506021033 | 16 | 270 | 4.8 | 14.5 | 0.00 | 0.51 | 0.51 | 72 | 1015.4 |
| 20260506020536 | 16 | 275 | 4.8 | 11.3 | 0.00 | 0.51 | 0.51 | 72 | 1015.3 |
| 20260506020047 | 16 | 300 | 4.8 | 11.3 | 0.00 | 0.51 | 0.51 | 72 | 1015.2 |
| 20260506015535 | 16 | 298 | 4.8 | 11.3 | 0.00 | 0.51 | 0.51 | 71 | 1015.2 |
| 20260506015032 | 16 | 306 | 4.8 | 12.9 | 0.00 | 0.51 | 0.51 | 70 | 1015.1 |
| 20260506014548 | 16 | 280 | 4.8 | 14.5 | 0.00 | 0.51 | 0.51 | 69 | 1015.1 |
| 20260506014036 | 16 | 257 | 6.4 | 14.5 | 0.00 | 0.51 | 0.51 | 69 | 1015.0 |
| 20260506013534 | 16 | 294 | 6.4 | 17.7 | 0.00 | 0.51 | 0.51 | 68 | 1015.0 |
| 20260506013045 | 17 | 297 | 6.4 | 17.7 | 0.00 | 0.51 | 0.51 | 68 | 1015.0 |
| 20260506012534 | 17 | 282 | 8.0 | 17.7 | 0.00 | 0.51 | 0.51 | 68 | 1015.0 |
| 20260506012035 | 17 | 275 | 6.4 | 14.5 | 0.00 | 0.51 | 0.51 | 69 | 1014.7 |
| 20260506011544 | 17 | 288 | 6.4 | 16.1 | 0.00 | 0.51 | 0.51 | 67 | 1014.8 |
| 20260506011032 | 17 | 274 | 8.0 | 16.1 | 0.00 | 0.51 | 0.51 | 67 | 1014.9 |
| 20260506010531 | 17 | 344 | 8.0 | 17.7 | 0.00 | 0.51 | 0.51 | 67 | 1014.8 |
| 20260506010046 | 17 | 325 | 8.0 | 17.7 | 0.00 | 0.51 | 0.51 | 67 | 1014.9 |
| 20260506005536 | 17 | 266 | 9.7 | 19.3 | 0.00 | 0.51 | 0.51 | 67 | 1015.0 |
| 20260506005031 | 17 | 279 | 9.7 | 19.3 | 0.00 | 0.51 | 0.51 | 68 | 1015.0 |
| 20260506004548 | 17 | 315 | 11.3 | 19.3 | 0.00 | 0.51 | 0.51 | 67 | 1014.9 |
| 20260506004032 | 17 | 302 | 8.0 | 19.3 | 0.00 | 0.51 | 0.51 | 67 | 1014.9 |
| 20260506003535 | 17 | 296 | 9.7 | 17.7 | 0.00 | 0.51 | 0.51 | 67 | 1014.8 |
| 20260506003049 | 18 | 306 | 9.7 | 17.7 | 0.00 | 0.51 | 0.51 | 66 | 1015.0 |
| 20260506002537 | 18 | 215 | 9.7 | 17.7 | 0.00 | 0.51 | 0.51 | 67 | 1014.9 |
| 20260506002034 | 18 | 298 | 8.0 | 17.7 | 0.00 | 0.51 | 0.51 | 67 | 1014.8 |
| 20260506001547 | 18 | 278 | 8.0 | 17.7 | 0.00 | 0.51 | 0.51 | 67 | 1014.7 |
| 20260506001031 | 18 | 272 | 9.7 | 19.3 | 0.00 | 0.51 | 0.51 | 67 | 1014.6 |
| 20260506000534 | 18 | 292 | 11.3 | 19.3 | 0.00 | 0.51 | 0.51 | 64 | 1014.8 |
| 20260506000046 | 18 | 288 | 8.0 | 19.3 | 0.00 | 0.51 | 0.51 | 67 | 1014.7 |
| 20260505235531 | 18 | 319 | 8.0 | 20.9 | 0.00 | 0.51 | 0.51 | 65 | 1014.7 |
| 20260505235034 | 18 | 281 | 9.7 | 20.9 | 0.00 | 0.51 | 0.51 | 65 | 1014.8 |
| 20260505234553 | 18 | 238 | 8.0 | 17.7 | 0.00 | 0.51 | 0.51 | 65 | 1014.8 |
| 20260505234032 | 18 | 250 | 8.0 | 20.9 | 0.00 | 0.51 | 0.51 | 64 | 1014.8 |
| 20260505233533 | 18 | 284 | 11.3 | 20.9 | 0.00 | 0.51 | 0.51 | 66 | 1014.8 |
| 20260505233044 | 18 | 303 | 8.0 | 20.9 | 0.00 | 0.51 | 0.51 | 67 | 1014.6 |
| 20260505232531 | 18 | 250 | 9.7 | 17.7 | 0.00 | 0.51 | 0.51 | 67 | 1014.7 |
| 20260505232032 | 18 | 296 | 11.3 | 19.3 | 0.00 | 0.51 | 0.51 | 66 | 1014.7 |
| 20260505231552 | 18 | 317 | 11.3 | 19.3 | 0.00 | 0.51 | 0.51 | 67 | 1014.7 |
| 20260505231033 | 18 | 281 | 8.0 | 17.7 | 0.00 | 0.51 | 0.51 | 69 | 1014.8 |
| 20260505230534 | 18 | 263 | 9.7 | 17.7 | 0.00 | 0.51 | 0.51 | 66 | 1014.8 |
| 20260505230048 | 18 | 244 | 8.0 | 24.1 | 0.00 | 0.51 | 0.51 | 66 | 1014.9 |
| 20260505225532 | 18 | 267 | 9.7 | 24.1 | 0.00 | 0.51 | 0.51 | 66 | 1014.9 |
| 20260505225031 | 18 | 251 | 8.0 | 19.3 | 0.00 | 0.51 | 0.51 | 66 | 1014.9 |
| 20260505224553 | 18 | 215 | 11.3 | 19.3 | 0.00 | 0.51 | 0.51 | 66 | 1014.9 |
| 20260505224032 | 18 | 272 | 8.0 | 19.3 | 0.00 | 0.51 | 0.51 | 67 | 1014.9 |
| 20260505223532 | 18 | 285 | 9.7 | 19.3 | 0.00 | 0.51 | 0.51 | 65 | 1015.0 |
| 20260505223054 | 18 | 256 | 8.0 | 17.7 | 0.00 | 0.51 | 0.51 | 65 | 1015.0 |
| 20260505222533 | 18 | 202 | 8.0 | 20.9 | 0.00 | 0.51 | 0.51 | 64 | 1015.1 |
| 20260505222036 | 18 | 221 | 11.3 | 20.9 | 0.00 | 0.51 | 0.51 | 62 | 1015.1 |
| 20260505221551 | 18 | 289 | 9.7 | 17.7 | 0.00 | 0.51 | 0.51 | 64 | 1015.1 |
| 20260505221032 | 19 | 261 | 11.3 | 16.1 | 0.00 | 0.51 | 0.51 | 63 | 1015.0 |
| 20260505220531 | 19 | 286 | 8.0 | 16.1 | 0.00 | 0.51 | 0.51 | 64 | 1015.1 |
| 20260505220047 | 18 | 260 | 8.0 | 22.5 | 0.00 | 0.51 | 0.51 | 64 | 1015.2 |
| 20260505215532 | 18 | 208 | 9.7 | 22.5 | 0.00 | 0.51 | 0.51 | 62 | 1015.2 |
| 20260505215032 | 18 | 247 | 11.3 | 19.3 | 0.00 | 0.51 | 0.51 | 64 | 1015.2 |
| 20260505214550 | 18 | 339 | 9.7 | 19.3 | 0.00 | 0.51 | 0.51 | 65 | 1015.3 |
| 20260505214032 | 18 | 331 | 8.0 | 19.3 | 0.00 | 0.51 | 0.51 | 64 | 1015.3 |
| 20260505213531 | 18 | 256 | 6.4 | 22.5 | 0.00 | 0.51 | 0.51 | 65 | 1015.3 |
| 20260505213053 | 18 | 305 | 8.0 | 22.5 | 0.00 | 0.51 | 0.51 | 65 | 1015.5 |
| 20260505212534 | 19 | 267 | 9.7 | 19.3 | 0.00 | 0.51 | 0.51 | 68 | 1015.5 |
| 20260505212032 | 18 | 237 | 9.7 | 17.7 | 0.00 | 0.51 | 0.51 | 66 | 1015.5 |
| 20260505211551 | 18 | 256 | 9.7 | 17.7 | 0.00 | 0.51 | 0.51 | 66 | 1015.4 |
| 20260505211033 | 18 | 304 | 11.3 | 17.7 | 0.00 | 0.51 | 0.51 | 64 | 1015.4 |
| 20260505210532 | 18 | 280 | 8.0 | 19.3 | 0.00 | 0.51 | 0.51 | 65 | 1015.5 |
| 20260505210048 | 18 | 276 | 6.4 | 19.3 | 0.00 | 0.51 | 0.51 | 66 | 1015.5 |
| 20260505205533 | 18 | 157 | 6.4 | 17.7 | 0.00 | 0.51 | 0.51 | 67 | 1015.6 |
| 20260505205033 | 18 | 292 | 8.0 | 16.1 | 0.00 | 0.51 | 0.51 | 66 | 1015.6 |
| 20260505204548 | 18 | 261 | 8.0 | 16.1 | 0.00 | 0.51 | 0.51 | 67 | 1015.6 |
| 20260505204032 | 18 | 302 | 8.0 | 19.3 | 0.00 | 0.51 | 0.51 | 66 | 1015.6 |
| 20260505203532 | 18 | 257 | 8.0 | 19.3 | 0.00 | 0.51 | 0.51 | 68 | 1015.6 |
| 20260505203048 | 18 | 265 | 8.0 | 17.7 | 0.00 | 0.51 | 0.51 | 67 | 1015.6 |
| 20260505202534 | 18 | 310 | 6.4 | 17.7 | 0.00 | 0.51 | 0.51 | 69 | 1015.6 |
| 20260505202035 | 18 | 229 | 11.3 | 17.7 | 0.00 | 0.51 | 0.51 | 67 | 1015.7 |
| 20260505201553 | 18 | 328 | 9.7 | 22.5 | 0.00 | 0.51 | 0.51 | 68 | 1015.6 |
| 20260505201032 | 18 | 256 | 12.9 | 22.5 | 0.00 | 0.51 | 0.51 | 67 | 1015.6 |
| 20260505200532 | 18 | 272 | 9.7 | 17.7 | 0.00 | 0.51 | 0.51 | 68 | 1015.6 |
| 20260505200051 | 18 | 277 | 8.0 | 17.7 | 0.00 | 0.51 | 0.51 | 69 | 1015.6 |
| 20260505195535 | 18 | 238 | 9.7 | 19.3 | 0.00 | 0.51 | 0.51 | 70 | 1015.6 |
| 20260505195031 | 18 | 314 | 8.0 | 19.3 | 0.00 | 0.51 | 0.51 | 71 | 1015.6 |
| 20260505194600 | 18 | 196 | 8.0 | 19.3 | 0.00 | 0.51 | 0.51 | 71 | 1015.6 |
| 20260505194032 | 18 | 246 | 9.7 | 17.7 | 0.00 | 0.51 | 0.51 | 70 | 1015.6 |
| 20260505193532 | 18 | 281 | 8.0 | 17.7 | 0.00 | 0.51 | 0.51 | 70 | 1015.7 |
| 20260505193046 | 18 | 238 | 6.4 | 16.1 | 0.00 | 0.51 | 0.51 | 71 | 1015.7 |
| 20260505192534 | 18 | 263 | 6.4 | 16.1 | 0.00 | 0.51 | 0.51 | 70 | 1015.7 |
| 20260505192032 | 18 | 248 | 6.4 | 17.7 | 0.00 | 0.51 | 0.51 | 71 | 1015.8 |
| 20260505191550 | 18 | 279 | 6.4 | 20.9 | 0.00 | 0.51 | 0.51 | 70 | 1015.7 |
| 20260505191035 | 17 | 317 | 6.4 | 20.9 | 0.00 | 0.51 | 0.51 | 70 | 1015.7 |
| 20260505190534 | 17 | 280 | 6.4 | 16.1 | 0.00 | 0.51 | 0.51 | 70 | 1015.8 |
| 20260505190046 | 17 | 274 | 4.8 | 16.1 | 0.00 | 0.51 | 0.51 | 71 | 1015.7 |
| 20260505185532 | 17 | 315 | 8.0 | 19.3 | 0.00 | 0.51 | 0.51 | 70 | 1015.7 |
| 20260505185032 | 17 | 298 | 9.7 | 19.3 | 0.00 | 0.51 | 0.51 | 71 | 1015.7 |
| 20260505184546 | 17 | 276 | 4.8 | 19.3 | 0.00 | 0.51 | 0.51 | 71 | 1015.7 |
| 20260505184032 | 17 | 279 | 8.0 | 17.7 | 0.00 | 0.51 | 0.51 | 72 | 1015.8 |
| 20260505183531 | 17 | 213 | 6.4 | 16.1 | 0.00 | 0.51 | 0.51 | 71 | 1015.8 |
| 20260505183045 | 17 | 296 | 6.4 | 17.7 | 0.00 | 0.51 | 0.51 | 71 | 1015.7 |
| 20260505182533 | 17 | 234 | 9.7 | 20.9 | 0.00 | 0.51 | 0.51 | 71 | 1015.7 |
| 20260505182031 | 17 | 246 | 8.0 | 20.9 | 0.00 | 0.51 | 0.51 | 70 | 1015.7 |
| 20260505181549 | 17 | 281 | 8.0 | 17.7 | 0.00 | 0.51 | 0.51 | 70 | 1015.7 |
| 20260505181031 | 17 | 295 | 9.7 | 17.7 | 0.00 | 0.51 | 0.51 | 72 | 1015.7 |
| 20260505180531 | 16 | 250 | 6.4 | 14.5 | 0.00 | 0.51 | 0.51 | 73 | 1015.6 |
| 20260505180044 | 16 | 302 | 6.4 | 12.9 | 0.00 | 0.51 | 0.51 | 74 | 1015.6 |
| 20260505175532 | 16 | 264 | 4.8 | 14.5 | 0.00 | 0.51 | 0.51 | 76 | 1015.5 |
| 20260505175032 | 16 | 231 | 8.0 | 14.5 | 0.00 | 0.51 | 0.51 | 74 | 1015.5 |
| 20260505174551 | 16 | 272 | 6.4 | 14.5 | 0.00 | 0.51 | 0.51 | 75 | 1015.4 |
| 20260505174031 | 16 | 275 | 8.0 | 14.5 | 0.00 | 0.51 | 0.51 | 75 | 1015.4 |
| 20260505173530 | 16 | 309 | 6.4 | 14.5 | 0.00 | 0.51 | 0.51 | 75 | 1015.4 |
| 20260505173046 | 16 | 312 | 6.4 | 12.9 | 0.00 | 0.51 | 0.51 | 75 | 1015.3 |
| 20260505172530 | 16 | 261 | 6.4 | 16.1 | 0.00 | 0.51 | 0.51 | 74 | 1015.3 |
| 20260505172030 | 16 | 231 | 6.4 | 16.1 | 0.00 | 0.51 | 0.51 | 75 | 1015.2 |
| 20260505171551 | 16 | 262 | 8.0 | 16.1 | 0.00 | 0.51 | 0.51 | 76 | 1015.1 |
| 20260505171036 | 16 | 253 | 6.4 | 17.7 | 0.00 | 0.51 | 0.51 | 77 | 1015.1 |
| 20260505170530 | 16 | 250 | 8.0 | 17.7 | 0.00 | 0.51 | 0.51 | 77 | 1015.2 |
| 20260505170048 | 16 | 315 | 6.4 | 24.1 | 0.00 | 0.51 | 0.51 | 77 | 1015.1 |
| 20260505165535 | 16 | 284 | 9.7 | 24.1 | 0.00 | 0.51 | 0.51 | 77 | 1015.0 |